sensor_id;sensor_type;location;lat;lon;timestamp;P1;durP1;ratioP1;P2;durP2;ratioP2
33098;SDS011;19465;49.016;11.414;2024-03-08T00:00:26;37.78;;;21.15;;
33098;SDS011;19465;49.016;11.414;2024-03-08T00:02:52;40.63;;;21.88;;
33098;SDS011;19465;49.016;11.414;2024-03-08T00:05:19;36.67;;;22.58;;
33098;SDS011;19465;49.016;11.414;2024-03-08T00:07:45;42.50;;;23.45;;
33098;SDS011;19465;49.016;11.414;2024-03-08T00:10:11;42.78;;;22.42;;
33098;SDS011;19465;49.016;11.414;2024-03-08T00:12:38;37.47;;;22.45;;
33098;SDS011;19465;49.016;11.414;2024-03-08T00:15:11;37.03;;;22.58;;
33098;SDS011;19465;49.016;11.414;2024-03-08T00:17:42;40.47;;;23.45;;
33098;SDS011;19465;49.016;11.414;2024-03-08T00:20:08;42.22;;;22.58;;
33098;SDS011;19465;49.016;11.414;2024-03-08T00:22:34;42.17;;;23.02;;
33098;SDS011;19465;49.016;11.414;2024-03-08T00:25:03;41.10;;;22.38;;
33098;SDS011;19465;49.016;11.414;2024-03-08T00:27:30;42.10;;;22.65;;
33098;SDS011;19465;49.016;11.414;2024-03-08T00:29:59;40.58;;;22.33;;
33098;SDS011;19465;49.016;11.414;2024-03-08T00:32:25;40.92;;;23.77;;
33098;SDS011;19465;49.016;11.414;2024-03-08T00:34:52;38.97;;;22.75;;
33098;SDS011;19465;49.016;11.414;2024-03-08T00:37:19;41.92;;;22.90;;
33098;SDS011;19465;49.016;11.414;2024-03-08T00:39:45;41.17;;;22.70;;
33098;SDS011;19465;49.016;11.414;2024-03-08T00:42:10;42.13;;;23.83;;
33098;SDS011;19465;49.016;11.414;2024-03-08T00:44:36;40.45;;;23.25;;
33098;SDS011;19465;49.016;11.414;2024-03-08T00:47:01;42.67;;;23.00;;
33098;SDS011;19465;49.016;11.414;2024-03-08T00:49:28;41.28;;;23.75;;
33098;SDS011;19465;49.016;11.414;2024-03-08T00:51:53;41.20;;;22.70;;
33098;SDS011;19465;49.016;11.414;2024-03-08T00:54:19;41.95;;;21.90;;
33098;SDS011;19465;49.016;11.414;2024-03-08T00:56:44;41.05;;;23.13;;
33098;SDS011;19465;49.016;11.414;2024-03-08T00:59:11;43.88;;;24.08;;
33098;SDS011;19465;49.016;11.414;2024-03-08T01:01:36;42.25;;;24.13;;
33098;SDS011;19465;49.016;11.414;2024-03-08T01:04:02;42.38;;;24.13;;
33098;SDS011;19465;49.016;11.414;2024-03-08T01:06:27;39.35;;;22.48;;
33098;SDS011;19465;49.016;11.414;2024-03-08T01:08:53;37.85;;;21.75;;
33098;SDS011;19465;49.016;11.414;2024-03-08T01:11:18;41.42;;;23.15;;
33098;SDS011;19465;49.016;11.414;2024-03-08T01:13:44;40.03;;;23.27;;
33098;SDS011;19465;49.016;11.414;2024-03-08T01:16:12;40.38;;;23.23;;
33098;SDS011;19465;49.016;11.414;2024-03-08T01:18:37;44.97;;;24.27;;
33098;SDS011;19465;49.016;11.414;2024-03-08T01:21:03;38.55;;;22.88;;
33098;SDS011;19465;49.016;11.414;2024-03-08T01:23:29;40.63;;;23.77;;
33098;SDS011;19465;49.016;11.414;2024-03-08T01:25:55;42.85;;;24.60;;
33098;SDS011;19465;49.016;11.414;2024-03-08T01:28:24;46.03;;;23.90;;
33098;SDS011;19465;49.016;11.414;2024-03-08T01:30:49;41.47;;;23.25;;
33098;SDS011;19465;49.016;11.414;2024-03-08T01:33:20;38.72;;;23.48;;
33098;SDS011;19465;49.016;11.414;2024-03-08T01:35:50;44.72;;;24.00;;
33098;SDS011;19465;49.016;11.414;2024-03-08T01:38:16;41.45;;;22.88;;
33098;SDS011;19465;49.016;11.414;2024-03-08T01:40:42;44.38;;;23.70;;
33098;SDS011;19465;49.016;11.414;2024-03-08T01:43:20;44.33;;;24.13;;
33098;SDS011;19465;49.016;11.414;2024-03-08T01:45:47;43.80;;;24.50;;
33098;SDS011;19465;49.016;11.414;2024-03-08T01:48:14;41.40;;;24.20;;
33098;SDS011;19465;49.016;11.414;2024-03-08T01:50:40;42.72;;;23.52;;
33098;SDS011;19465;49.016;11.414;2024-03-08T01:53:06;42.88;;;23.98;;
33098;SDS011;19465;49.016;11.414;2024-03-08T01:55:35;43.90;;;24.05;;
33098;SDS011;19465;49.016;11.414;2024-03-08T01:58:00;41.40;;;23.85;;
33098;SDS011;19465;49.016;11.414;2024-03-08T02:00:28;40.40;;;23.27;;
33098;SDS011;19465;49.016;11.414;2024-03-08T02:02:55;42.22;;;23.98;;
33098;SDS011;19465;49.016;11.414;2024-03-08T02:05:22;41.58;;;22.55;;
33098;SDS011;19465;49.016;11.414;2024-03-08T02:07:48;43.33;;;24.80;;
33098;SDS011;19465;49.016;11.414;2024-03-08T02:10:14;48.67;;;24.67;;
33098;SDS011;19465;49.016;11.414;2024-03-08T02:12:40;39.83;;;23.40;;
33098;SDS011;19465;49.016;11.414;2024-03-08T02:15:06;41.05;;;22.65;;
33098;SDS011;19465;49.016;11.414;2024-03-08T02:17:32;43.00;;;24.08;;
33098;SDS011;19465;49.016;11.414;2024-03-08T02:20:01;43.17;;;24.30;;
33098;SDS011;19465;49.016;11.414;2024-03-08T02:22:28;44.58;;;25.05;;
33098;SDS011;19465;49.016;11.414;2024-03-08T02:24:54;43.17;;;26.55;;
33098;SDS011;19465;49.016;11.414;2024-03-08T02:27:23;44.17;;;25.60;;
33098;SDS011;19465;49.016;11.414;2024-03-08T02:29:50;40.97;;;24.33;;
33098;SDS011;19465;49.016;11.414;2024-03-08T02:32:20;42.80;;;24.67;;
33098;SDS011;19465;49.016;11.414;2024-03-08T02:34:47;41.25;;;23.58;;
33098;SDS011;19465;49.016;11.414;2024-03-08T02:37:13;42.28;;;23.90;;
33098;SDS011;19465;49.016;11.414;2024-03-08T02:39:38;43.10;;;25.15;;
33098;SDS011;19465;49.016;11.414;2024-03-08T02:42:04;43.60;;;24.73;;
33098;SDS011;19465;49.016;11.414;2024-03-08T02:44:29;45.58;;;25.05;;
33098;SDS011;19465;49.016;11.414;2024-03-08T02:46:55;44.78;;;25.10;;
33098;SDS011;19465;49.016;11.414;2024-03-08T02:49:21;44.53;;;24.20;;
33098;SDS011;19465;49.016;11.414;2024-03-08T02:51:46;42.38;;;23.67;;
33098;SDS011;19465;49.016;11.414;2024-03-08T02:54:12;48.92;;;25.42;;
33098;SDS011;19465;49.016;11.414;2024-03-08T02:56:37;45.20;;;25.70;;
33098;SDS011;19465;49.016;11.414;2024-03-08T02:59:03;44.30;;;25.65;;
33098;SDS011;19465;49.016;11.414;2024-03-08T03:01:28;43.60;;;24.13;;
33098;SDS011;19465;49.016;11.414;2024-03-08T03:03:54;43.63;;;24.65;;
33098;SDS011;19465;49.016;11.414;2024-03-08T03:06:19;39.17;;;23.27;;
33098;SDS011;19465;49.016;11.414;2024-03-08T03:08:46;41.42;;;24.05;;
33098;SDS011;19465;49.016;11.414;2024-03-08T03:11:14;44.08;;;24.55;;
33098;SDS011;19465;49.016;11.414;2024-03-08T03:13:40;47.35;;;25.83;;
33098;SDS011;19465;49.016;11.414;2024-03-08T03:16:07;43.70;;;25.15;;
33098;SDS011;19465;49.016;11.414;2024-03-08T03:18:33;41.35;;;24.38;;
33098;SDS011;19465;49.016;11.414;2024-03-08T03:20:58;45.75;;;25.98;;
33098;SDS011;19465;49.016;11.414;2024-03-08T03:23:24;41.08;;;24.70;;
33098;SDS011;19465;49.016;11.414;2024-03-08T03:25:51;45.92;;;25.20;;
33098;SDS011;19465;49.016;11.414;2024-03-08T03:28:17;43.90;;;24.90;;
33098;SDS011;19465;49.016;11.414;2024-03-08T03:30:46;43.28;;;24.48;;
33098;SDS011;19465;49.016;11.414;2024-03-08T03:33:12;41.55;;;25.17;;
33098;SDS011;19465;49.016;11.414;2024-03-08T03:35:39;45.90;;;24.33;;
33098;SDS011;19465;49.016;11.414;2024-03-08T03:38:06;42.72;;;24.80;;
33098;SDS011;19465;49.016;11.414;2024-03-08T03:40:34;39.92;;;23.92;;
33098;SDS011;19465;49.016;11.414;2024-03-08T03:43:01;44.10;;;24.08;;
33098;SDS011;19465;49.016;11.414;2024-03-08T03:45:28;43.10;;;24.13;;
33098;SDS011;19465;49.016;11.414;2024-03-08T03:47:53;41.30;;;24.25;;
33098;SDS011;19465;49.016;11.414;2024-03-08T03:50:19;39.35;;;23.85;;
33098;SDS011;19465;49.016;11.414;2024-03-08T03:52:46;43.78;;;24.50;;
33098;SDS011;19465;49.016;11.414;2024-03-08T03:55:12;42.13;;;24.55;;
33098;SDS011;19465;49.016;11.414;2024-03-08T03:57:38;41.47;;;25.73;;
33098;SDS011;19465;49.016;11.414;2024-03-08T04:00:04;43.03;;;24.77;;
33098;SDS011;19465;49.016;11.414;2024-03-08T04:02:31;48.30;;;25.95;;
33098;SDS011;19465;49.016;11.414;2024-03-08T04:04:56;45.45;;;25.63;;
33098;SDS011;19465;49.016;11.414;2024-03-08T04:07:22;40.33;;;23.98;;
33098;SDS011;19465;49.016;11.414;2024-03-08T04:09:47;45.83;;;25.52;;
33098;SDS011;19465;49.016;11.414;2024-03-08T04:12:13;46.00;;;25.33;;
33098;SDS011;19465;49.016;11.414;2024-03-08T04:14:41;43.53;;;25.40;;
33098;SDS011;19465;49.016;11.414;2024-03-08T04:17:07;41.17;;;24.27;;
33098;SDS011;19465;49.016;11.414;2024-03-08T04:19:38;43.33;;;25.08;;
33098;SDS011;19465;49.016;11.414;2024-03-08T04:22:05;43.17;;;25.65;;
33098;SDS011;19465;49.016;11.414;2024-03-08T04:24:32;48.08;;;26.25;;
33098;SDS011;19465;49.016;11.414;2024-03-08T04:26:58;41.72;;;24.15;;
33098;SDS011;19465;49.016;11.414;2024-03-08T04:29:23;45.40;;;25.08;;
33098;SDS011;19465;49.016;11.414;2024-03-08T04:31:49;48.10;;;26.42;;
33098;SDS011;19465;49.016;11.414;2024-03-08T04:34:19;46.42;;;26.40;;
33098;SDS011;19465;49.016;11.414;2024-03-08T04:36:45;42.55;;;24.50;;
33098;SDS011;19465;49.016;11.414;2024-03-08T04:39:10;44.60;;;26.20;;
33098;SDS011;19465;49.016;11.414;2024-03-08T04:41:38;43.08;;;25.60;;
33098;SDS011;19465;49.016;11.414;2024-03-08T04:44:04;42.72;;;25.90;;
33098;SDS011;19465;49.016;11.414;2024-03-08T04:46:29;43.35;;;25.42;;
33098;SDS011;19465;49.016;11.414;2024-03-08T04:48:55;46.40;;;25.02;;
33098;SDS011;19465;49.016;11.414;2024-03-08T04:51:20;44.08;;;25.13;;
33098;SDS011;19465;49.016;11.414;2024-03-08T04:53:46;46.25;;;26.13;;
33098;SDS011;19465;49.016;11.414;2024-03-08T04:56:11;45.28;;;25.00;;
33098;SDS011;19465;49.016;11.414;2024-03-08T04:58:37;46.45;;;24.35;;
33098;SDS011;19465;49.016;11.414;2024-03-08T05:01:03;42.25;;;25.58;;
33098;SDS011;19465;49.016;11.414;2024-03-08T05:03:28;45.40;;;24.85;;
33098;SDS011;19465;49.016;11.414;2024-03-08T05:05:55;48.88;;;25.52;;
33098;SDS011;19465;49.016;11.414;2024-03-08T05:08:21;45.83;;;26.33;;
33098;SDS011;19465;49.016;11.414;2024-03-08T05:10:46;45.10;;;24.55;;
33098;SDS011;19465;49.016;11.414;2024-03-08T05:13:12;44.47;;;25.77;;
33098;SDS011;19465;49.016;11.414;2024-03-08T05:15:38;45.80;;;27.20;;
33098;SDS011;19465;49.016;11.414;2024-03-08T05:18:04;44.67;;;24.83;;
33098;SDS011;19465;49.016;11.414;2024-03-08T05:20:30;47.00;;;26.02;;
33098;SDS011;19465;49.016;11.414;2024-03-08T05:22:56;46.08;;;26.20;;
33098;SDS011;19465;49.016;11.414;2024-03-08T05:25:23;48.13;;;27.85;;
33098;SDS011;19465;49.016;11.414;2024-03-08T05:27:49;45.53;;;24.98;;
33098;SDS011;19465;49.016;11.414;2024-03-08T05:30:14;46.45;;;25.70;;
33098;SDS011;19465;49.016;11.414;2024-03-08T05:32:43;46.10;;;26.08;;
33098;SDS011;19465;49.016;11.414;2024-03-08T05:35:12;45.10;;;25.88;;
33098;SDS011;19465;49.016;11.414;2024-03-08T05:37:38;45.17;;;25.80;;
33098;SDS011;19465;49.016;11.414;2024-03-08T05:40:07;48.67;;;27.17;;
33098;SDS011;19465;49.016;11.414;2024-03-08T05:42:36;46.53;;;25.98;;
33098;SDS011;19465;49.016;11.414;2024-03-08T05:45:05;46.60;;;26.38;;
33098;SDS011;19465;49.016;11.414;2024-03-08T05:47:34;43.65;;;24.98;;
33098;SDS011;19465;49.016;11.414;2024-03-08T05:50:00;50.00;;;28.40;;
33098;SDS011;19465;49.016;11.414;2024-03-08T05:52:26;92.70;;;51.20;;
33098;SDS011;19465;49.016;11.414;2024-03-08T05:54:51;44.33;;;26.58;;
33098;SDS011;19465;49.016;11.414;2024-03-08T05:57:17;50.88;;;29.42;;
33098;SDS011;19465;49.016;11.414;2024-03-08T05:59:43;47.75;;;29.08;;
33098;SDS011;19465;49.016;11.414;2024-03-08T06:02:08;47.58;;;28.10;;
33098;SDS011;19465;49.016;11.414;2024-03-08T06:04:34;47.00;;;28.55;;
33098;SDS011;19465;49.016;11.414;2024-03-08T06:06:59;43.45;;;25.58;;
33098;SDS011;19465;49.016;11.414;2024-03-08T06:09:25;51.17;;;28.38;;
33098;SDS011;19465;49.016;11.414;2024-03-08T06:11:51;42.38;;;25.52;;
33098;SDS011;19465;49.016;11.414;2024-03-08T06:14:18;44.05;;;25.80;;
33098;SDS011;19465;49.016;11.414;2024-03-08T06:16:44;48.88;;;26.80;;
33098;SDS011;19465;49.016;11.414;2024-03-08T06:19:10;42.20;;;25.65;;
33098;SDS011;19465;49.016;11.414;2024-03-08T06:21:37;43.67;;;26.00;;
33098;SDS011;19465;49.016;11.414;2024-03-08T06:24:02;41.88;;;24.75;;
33098;SDS011;19465;49.016;11.414;2024-03-08T06:26:28;42.47;;;25.27;;
33098;SDS011;19465;49.016;11.414;2024-03-08T06:28:54;61.90;;;36.28;;
33098;SDS011;19465;49.016;11.414;2024-03-08T06:31:20;58.90;;;32.17;;
33098;SDS011;19465;49.016;11.414;2024-03-08T06:33:45;415.42;;;181.45;;
33098;SDS011;19465;49.016;11.414;2024-03-08T06:36:11;232.57;;;128.23;;
33098;SDS011;19465;49.016;11.414;2024-03-08T06:38:37;46.83;;;27.38;;
33098;SDS011;19465;49.016;11.414;2024-03-08T06:41:07;58.92;;;40.92;;
33098;SDS011;19465;49.016;11.414;2024-03-08T06:43:34;46.95;;;28.08;;
33098;SDS011;19465;49.016;11.414;2024-03-08T06:45:59;43.53;;;27.55;;
33098;SDS011;19465;49.016;11.414;2024-03-08T06:48:25;48.30;;;28.75;;
33098;SDS011;19465;49.016;11.414;2024-03-08T06:50:51;44.50;;;26.30;;
33098;SDS011;19465;49.016;11.414;2024-03-08T06:53:16;41.35;;;24.38;;
33098;SDS011;19465;49.016;11.414;2024-03-08T06:55:45;42.88;;;25.38;;
33098;SDS011;19465;49.016;11.414;2024-03-08T06:58:10;38.50;;;24.45;;
33098;SDS011;19465;49.016;11.414;2024-03-08T07:00:38;37.75;;;24.25;;
33098;SDS011;19465;49.016;11.414;2024-03-08T07:03:07;36.92;;;22.92;;
33098;SDS011;19465;49.016;11.414;2024-03-08T07:05:37;37.92;;;23.63;;
33098;SDS011;19465;49.016;11.414;2024-03-08T07:08:02;38.72;;;23.73;;
33098;SDS011;19465;49.016;11.414;2024-03-08T07:10:28;38.63;;;23.30;;
33098;SDS011;19465;49.016;11.414;2024-03-08T07:12:54;39.15;;;25.70;;
33098;SDS011;19465;49.016;11.414;2024-03-08T07:15:20;38.15;;;24.92;;
33098;SDS011;19465;49.016;11.414;2024-03-08T07:17:46;36.95;;;24.95;;
33098;SDS011;19465;49.016;11.414;2024-03-08T07:20:12;35.85;;;23.08;;
33098;SDS011;19465;49.016;11.414;2024-03-08T07:22:40;35.67;;;23.63;;
33098;SDS011;19465;49.016;11.414;2024-03-08T07:25:06;39.70;;;23.67;;
33098;SDS011;19465;49.016;11.414;2024-03-08T07:27:48;35.38;;;22.60;;
33098;SDS011;19465;49.016;11.414;2024-03-08T07:30:16;36.13;;;23.00;;
33098;SDS011;19465;49.016;11.414;2024-03-08T07:33:00;33.85;;;22.98;;
33098;SDS011;19465;49.016;11.414;2024-03-08T07:35:27;31.05;;;22.13;;
33098;SDS011;19465;49.016;11.414;2024-03-08T07:37:53;34.97;;;21.90;;
33098;SDS011;19465;49.016;11.414;2024-03-08T07:40:20;32.47;;;20.60;;
33098;SDS011;19465;49.016;11.414;2024-03-08T07:42:46;30.52;;;21.70;;
33098;SDS011;19465;49.016;11.414;2024-03-08T07:45:11;32.95;;;22.38;;
33098;SDS011;19465;49.016;11.414;2024-03-08T07:47:37;29.30;;;20.10;;
33098;SDS011;19465;49.016;11.414;2024-03-08T07:50:03;28.38;;;21.40;;
33098;SDS011;19465;49.016;11.414;2024-03-08T07:52:29;26.63;;;19.45;;
33098;SDS011;19465;49.016;11.414;2024-03-08T07:54:55;26.77;;;19.95;;
33098;SDS011;19465;49.016;11.414;2024-03-08T07:57:20;25.27;;;19.02;;
33098;SDS011;19465;49.016;11.414;2024-03-08T07:59:46;25.98;;;18.55;;
33098;SDS011;19465;49.016;11.414;2024-03-08T08:02:11;27.77;;;20.00;;
33098;SDS011;19465;49.016;11.414;2024-03-08T08:04:37;26.33;;;18.52;;
33098;SDS011;19465;49.016;11.414;2024-03-08T08:07:03;26.73;;;19.13;;
33098;SDS011;19465;49.016;11.414;2024-03-08T08:09:29;26.77;;;18.98;;
33098;SDS011;19465;49.016;11.414;2024-03-08T08:11:59;26.08;;;18.73;;
33098;SDS011;19465;49.016;11.414;2024-03-08T08:14:27;26.10;;;18.17;;
33098;SDS011;19465;49.016;11.414;2024-03-08T08:16:53;26.23;;;18.75;;
33098;SDS011;19465;49.016;11.414;2024-03-08T08:19:20;25.25;;;17.52;;
33098;SDS011;19465;49.016;11.414;2024-03-08T08:21:46;27.40;;;18.27;;
33098;SDS011;19465;49.016;11.414;2024-03-08T08:24:12;27.98;;;19.50;;
33098;SDS011;19465;49.016;11.414;2024-03-08T08:26:37;26.02;;;18.77;;
33098;SDS011;19465;49.016;11.414;2024-03-08T08:29:03;27.15;;;19.25;;
33098;SDS011;19465;49.016;11.414;2024-03-08T08:31:29;26.95;;;18.05;;
33098;SDS011;19465;49.016;11.414;2024-03-08T08:33:56;28.02;;;18.58;;
33098;SDS011;19465;49.016;11.414;2024-03-08T08:36:25;29.55;;;19.50;;
33098;SDS011;19465;49.016;11.414;2024-03-08T08:38:51;29.85;;;20.30;;
33098;SDS011;19465;49.016;11.414;2024-03-08T08:41:19;27.23;;;18.95;;
33098;SDS011;19465;49.016;11.414;2024-03-08T08:43:46;26.50;;;18.33;;
33098;SDS011;19465;49.016;11.414;2024-03-08T08:46:11;26.25;;;18.65;;
33098;SDS011;19465;49.016;11.414;2024-03-08T08:48:38;25.38;;;18.98;;
33098;SDS011;19465;49.016;11.414;2024-03-08T08:51:06;26.50;;;18.10;;
33098;SDS011;19465;49.016;11.414;2024-03-08T08:53:37;22.58;;;17.10;;
33098;SDS011;19465;49.016;11.414;2024-03-08T08:56:08;24.08;;;17.88;;
33098;SDS011;19465;49.016;11.414;2024-03-08T08:58:37;24.83;;;18.98;;
33098;SDS011;19465;49.016;11.414;2024-03-08T09:01:04;22.05;;;18.05;;
33098;SDS011;19465;49.016;11.414;2024-03-08T09:03:30;23.75;;;18.58;;
33098;SDS011;19465;49.016;11.414;2024-03-08T09:05:55;47.50;;;19.00;;
33098;SDS011;19465;49.016;11.414;2024-03-08T09:08:21;23.80;;;17.83;;
33098;SDS011;19465;49.016;11.414;2024-03-08T09:10:48;22.85;;;17.42;;
33098;SDS011;19465;49.016;11.414;2024-03-08T09:13:13;22.35;;;17.13;;
33098;SDS011;19465;49.016;11.414;2024-03-08T09:15:39;23.02;;;16.90;;
33098;SDS011;19465;49.016;11.414;2024-03-08T09:18:05;21.90;;;17.23;;
33098;SDS011;19465;49.016;11.414;2024-03-08T09:20:31;22.17;;;18.15;;
33098;SDS011;19465;49.016;11.414;2024-03-08T09:22:57;22.77;;;17.60;;
33098;SDS011;19465;49.016;11.414;2024-03-08T09:25:22;20.60;;;16.17;;
33098;SDS011;19465;49.016;11.414;2024-03-08T09:27:48;22.35;;;17.33;;
33098;SDS011;19465;49.016;11.414;2024-03-08T09:30:14;21.55;;;17.45;;
33098;SDS011;19465;49.016;11.414;2024-03-08T09:32:40;19.83;;;17.15;;
33098;SDS011;19465;49.016;11.414;2024-03-08T09:35:08;20.27;;;16.35;;
33098;SDS011;19465;49.016;11.414;2024-03-08T09:37:33;20.92;;;18.65;;
33098;SDS011;19465;49.016;11.414;2024-03-08T09:39:59;20.63;;;17.13;;
33098;SDS011;19465;49.016;11.414;2024-03-08T09:42:29;20.80;;;16.77;;
33098;SDS011;19465;49.016;11.414;2024-03-08T09:44:56;20.23;;;16.88;;
33098;SDS011;19465;49.016;11.414;2024-03-08T09:47:22;19.30;;;16.42;;
33098;SDS011;19465;49.016;11.414;2024-03-08T09:49:54;21.38;;;17.65;;
33098;SDS011;19465;49.016;11.414;2024-03-08T09:52:19;20.40;;;17.02;;
33098;SDS011;19465;49.016;11.414;2024-03-08T09:54:45;20.08;;;17.30;;
33098;SDS011;19465;49.016;11.414;2024-03-08T09:57:11;19.45;;;16.92;;
33098;SDS011;19465;49.016;11.414;2024-03-08T09:59:37;20.73;;;17.83;;
33098;SDS011;19465;49.016;11.414;2024-03-08T10:02:02;20.02;;;16.08;;
33098;SDS011;19465;49.016;11.414;2024-03-08T10:04:29;17.88;;;15.75;;
33098;SDS011;19465;49.016;11.414;2024-03-08T10:06:58;19.25;;;15.90;;
33098;SDS011;19465;49.016;11.414;2024-03-08T10:09:27;18.10;;;16.00;;
33098;SDS011;19465;49.016;11.414;2024-03-08T10:11:56;17.83;;;15.63;;
33098;SDS011;19465;49.016;11.414;2024-03-08T10:14:23;18.67;;;15.55;;
33098;SDS011;19465;49.016;11.414;2024-03-08T10:16:49;18.90;;;15.85;;
33098;SDS011;19465;49.016;11.414;2024-03-08T10:19:15;18.33;;;15.40;;
33098;SDS011;19465;49.016;11.414;2024-03-08T10:21:48;17.95;;;14.95;;
33098;SDS011;19465;49.016;11.414;2024-03-08T10:24:14;20.58;;;15.25;;
33098;SDS011;19465;49.016;11.414;2024-03-08T10:26:39;18.25;;;14.55;;
33098;SDS011;19465;49.016;11.414;2024-03-08T10:29:05;19.77;;;15.45;;
33098;SDS011;19465;49.016;11.414;2024-03-08T10:31:32;19.20;;;15.13;;
33098;SDS011;19465;49.016;11.414;2024-03-08T10:33:58;19.27;;;15.80;;
33098;SDS011;19465;49.016;11.414;2024-03-08T10:36:23;18.42;;;14.35;;
33098;SDS011;19465;49.016;11.414;2024-03-08T10:38:50;18.45;;;13.70;;
33098;SDS011;19465;49.016;11.414;2024-03-08T10:41:18;17.95;;;13.95;;
33098;SDS011;19465;49.016;11.414;2024-03-08T10:49:04;17.15;;;14.43;;
33098;SDS011;19465;49.016;11.414;2024-03-08T10:51:37;16.55;;;12.50;;
33098;SDS011;19465;49.016;11.414;2024-03-08T10:54:06;15.27;;;12.85;;
33098;SDS011;19465;49.016;11.414;2024-03-08T10:56:34;14.45;;;12.95;;
33098;SDS011;19465;49.016;11.414;2024-03-08T10:59:00;15.20;;;13.35;;
33098;SDS011;19465;49.016;11.414;2024-03-08T11:01:25;13.95;;;12.50;;
33098;SDS011;19465;49.016;11.414;2024-03-08T11:03:52;13.77;;;12.18;;
33098;SDS011;19465;49.016;11.414;2024-03-08T11:08:48;15.30;;;13.43;;
33098;SDS011;19465;49.016;11.414;2024-03-08T11:11:23;13.38;;;11.98;;
33098;SDS011;19465;49.016;11.414;2024-03-08T11:13:59;13.30;;;11.90;;
33098;SDS011;19465;49.016;11.414;2024-03-08T11:18:59;13.43;;;12.02;;
33098;SDS011;19465;49.016;11.414;2024-03-08T11:21:29;13.60;;;12.00;;
33098;SDS011;19465;49.016;11.414;2024-03-08T11:24:01;13.73;;;11.75;;
33098;SDS011;19465;49.016;11.414;2024-03-08T11:26:31;13.43;;;12.03;;
33098;SDS011;19465;49.016;11.414;2024-03-08T11:32:11;12.38;;;11.05;;
33098;SDS011;19465;49.016;11.414;2024-03-08T11:34:40;11.30;;;10.10;;
33098;SDS011;19465;49.016;11.414;2024-03-08T11:37:15;13.18;;;11.77;;
33098;SDS011;19465;49.016;11.414;2024-03-08T11:39:46;11.90;;;10.65;;
33098;SDS011;19465;49.016;11.414;2024-03-08T11:42:13;10.55;;;9.32;;
33098;SDS011;19465;49.016;11.414;2024-03-08T11:44:40;11.73;;;10.55;;
33098;SDS011;19465;49.016;11.414;2024-03-08T11:47:09;11.68;;;10.10;;
33098;SDS011;19465;49.016;11.414;2024-03-08T11:49:36;11.45;;;10.35;;
33098;SDS011;19465;49.016;11.414;2024-03-08T11:52:02;11.30;;;9.48;;
33098;SDS011;19465;49.016;11.414;2024-03-08T11:54:28;10.80;;;9.80;;
33098;SDS011;19465;49.016;11.414;2024-03-08T11:56:55;11.27;;;10.18;;
33098;SDS011;19465;49.016;11.414;2024-03-08T11:59:25;10.98;;;9.85;;
33098;SDS011;19465;49.016;11.414;2024-03-08T12:02:02;12.15;;;10.95;;
33098;SDS011;19465;49.016;11.414;2024-03-08T12:04:29;10.68;;;9.57;;
33098;SDS011;19465;49.016;11.414;2024-03-08T12:06:56;10.85;;;9.80;;
33098;SDS011;19465;49.016;11.414;2024-03-08T12:09:24;10.73;;;9.60;;
33098;SDS011;19465;49.016;11.414;2024-03-08T12:11:50;10.50;;;9.50;;
33098;SDS011;19465;49.016;11.414;2024-03-08T12:14:16;10.93;;;9.93;;
33098;SDS011;19465;49.016;11.414;2024-03-08T12:16:42;10.63;;;9.52;;
33098;SDS011;19465;49.016;11.414;2024-03-08T12:19:08;9.70;;;8.70;;
33098;SDS011;19465;49.016;11.414;2024-03-08T12:21:35;9.95;;;8.98;;
33098;SDS011;19465;49.016;11.414;2024-03-08T12:24:07;11.10;;;9.88;;
33098;SDS011;19465;49.016;11.414;2024-03-08T12:26:35;10.30;;;9.30;;
33098;SDS011;19465;49.016;11.414;2024-03-08T12:29:15;10.55;;;9.25;;
33098;SDS011;19465;49.016;11.414;2024-03-08T12:31:52;11.10;;;9.98;;
33098;SDS011;19465;49.016;11.414;2024-03-08T12:34:19;10.60;;;9.55;;
33098;SDS011;19465;49.016;11.414;2024-03-08T12:36:49;11.40;;;10.20;;
33098;SDS011;19465;49.016;11.414;2024-03-08T12:39:19;10.68;;;9.70;;
33098;SDS011;19465;49.016;11.414;2024-03-08T12:41:47;10.27;;;9.27;;
33098;SDS011;19465;49.016;11.414;2024-03-08T12:44:14;9.82;;;8.93;;
33098;SDS011;19465;49.016;11.414;2024-03-08T12:46:40;9.60;;;8.70;;
33098;SDS011;19465;49.016;11.414;2024-03-08T12:49:07;9.30;;;8.27;;
33098;SDS011;19465;49.016;11.414;2024-03-08T12:51:33;8.68;;;7.75;;
33098;SDS011;19465;49.016;11.414;2024-03-08T12:53:59;7.75;;;7.05;;
33098;SDS011;19465;49.016;11.414;2024-03-08T12:56:29;9.25;;;7.65;;
33098;SDS011;19465;49.016;11.414;2024-03-08T12:58:57;8.98;;;8.18;;
33098;SDS011;19465;49.016;11.414;2024-03-08T13:01:23;8.57;;;7.47;;
33098;SDS011;19465;49.016;11.414;2024-03-08T13:03:48;8.95;;;7.60;;
33098;SDS011;19465;49.016;11.414;2024-03-08T13:06:17;10.57;;;7.63;;
33098;SDS011;19465;49.016;11.414;2024-03-08T13:08:46;8.88;;;7.55;;
33098;SDS011;19465;49.016;11.414;2024-03-08T13:11:13;10.50;;;7.75;;
33098;SDS011;19465;49.016;11.414;2024-03-08T13:13:42;8.70;;;7.47;;
33098;SDS011;19465;49.016;11.414;2024-03-08T13:16:08;7.47;;;6.78;;
33098;SDS011;19465;49.016;11.414;2024-03-08T13:18:34;9.23;;;7.53;;
33098;SDS011;19465;49.016;11.414;2024-03-08T13:21:00;9.77;;;6.88;;
33098;SDS011;19465;49.016;11.414;2024-03-08T13:23:31;8.38;;;7.38;;
33098;SDS011;19465;49.016;11.414;2024-03-08T13:25:58;8.90;;;7.93;;
33098;SDS011;19465;49.016;11.414;2024-03-08T13:28:24;7.97;;;7.18;;
33098;SDS011;19465;49.016;11.414;2024-03-08T13:30:54;7.65;;;6.95;;
33098;SDS011;19465;49.016;11.414;2024-03-08T13:33:23;8.65;;;7.80;;
33098;SDS011;19465;49.016;11.414;2024-03-08T13:35:48;8.32;;;7.50;;
33098;SDS011;19465;49.016;11.414;2024-03-08T13:38:15;8.70;;;7.90;;
33098;SDS011;19465;49.016;11.414;2024-03-08T13:40:45;8.23;;;7.28;;
33098;SDS011;19465;49.016;11.414;2024-03-08T13:43:11;7.40;;;6.70;;
33098;SDS011;19465;49.016;11.414;2024-03-08T13:45:38;9.40;;;7.95;;
33098;SDS011;19465;49.016;11.414;2024-03-08T13:48:03;9.45;;;8.45;;
33098;SDS011;19465;49.016;11.414;2024-03-08T13:50:29;9.13;;;7.68;;
33098;SDS011;19465;49.016;11.414;2024-03-08T13:52:55;9.13;;;7.53;;
33098;SDS011;19465;49.016;11.414;2024-03-08T13:55:21;8.13;;;7.28;;
33098;SDS011;19465;49.016;11.414;2024-03-08T13:57:47;9.32;;;7.90;;
33098;SDS011;19465;49.016;11.414;2024-03-08T14:00:13;8.93;;;7.90;;
33098;SDS011;19465;49.016;11.414;2024-03-08T14:02:40;8.38;;;7.10;;
33098;SDS011;19465;49.016;11.414;2024-03-08T14:05:09;8.07;;;7.28;;
33098;SDS011;19465;49.016;11.414;2024-03-08T14:07:36;7.90;;;6.97;;
33098;SDS011;19465;49.016;11.414;2024-03-08T14:10:02;8.13;;;6.68;;
33098;SDS011;19465;49.016;11.414;2024-03-08T14:12:28;7.70;;;6.70;;
33098;SDS011;19465;49.016;11.414;2024-03-08T14:14:54;8.23;;;7.38;;
33098;SDS011;19465;49.016;11.414;2024-03-08T14:17:24;14.57;;;11.68;;
33098;SDS011;19465;49.016;11.414;2024-03-08T14:19:51;7.38;;;6.43;;
33098;SDS011;19465;49.016;11.414;2024-03-08T14:22:17;7.95;;;6.45;;
33098;SDS011;19465;49.016;11.414;2024-03-08T14:24:43;7.28;;;6.47;;